Time;durP1;ratioP1;P1;durP2;ratioP2;P2;SDS_P1;SDS_P2;PMS_P1;PMS_P2;Temp;Humidity;BMP_temperature;BMP_pressure;BME280_temperature;BME280_humidity;BME280_pressure;Samples;Min_cycle;Max_cycle;Signal;HPM_P1;HPM_P2
2022/11/23 00:07:04;;;;;;;1.02;1.02;;;;;;;6.69;70.67;99162.81;18369221;32;20139;-59
2022/11/23 00:17:07;;;;;;;0.57;0.57;;;;;;;7.20;69.20;99133.91;18370249;32;20405;-59
2022/11/23 00:27:12;;;;;;;1.52;1.42;;;;;;;7.00;69.68;99128.03;18368679;32;20066;-59
2022/11/23 00:37:15;;;;;;;0.70;0.70;;;;;;;7.15;69.56;99137.44;18367663;32;20158;-59
2022/11/23 00:47:20;;;;;;;0.70;0.70;;;;;;;7.31;69.07;99131.22;18368972;32;20127;-59
2022/11/23 00:57:23;;;;;;;0.80;0.80;;;;;;;7.08;70.15;99124.50;18367273;32;20347;-59
2022/11/23 01:07:30;;;;;;;0.68;0.68;;;;;;;7.11;69.72;99130.53;18367289;32;20097;-59
2022/11/23 01:17:33;;;;;;;0.70;0.70;;;;;;;6.94;70.14;99115.97;18367205;32;20100;-60
2022/11/23 01:27:38;;;;;;;0.60;0.60;;;;;;;7.00;70.01;99113.31;18366712;32;20115;-59
2022/11/23 01:37:41;;;;;;;0.70;0.70;;;;;;;6.91;70.33;99106.47;18366314;32;20148;-59
2022/11/23 01:47:45;;;;;;;0.73;0.73;;;;;;;7.36;69.18;99093.09;18365136;32;20120;-59
2022/11/23 01:57:49;;;;;;;0.60;0.60;;;;;;;7.27;69.44;99085.38;18366104;32;20096;-59
2022/11/23 02:07:53;;;;;;;0.70;0.70;;;;;;;7.27;69.89;99068.97;18365996;32;20434;-59
2022/11/23 02:17:58;;;;;;;1.33;1.05;;;;;;;7.50;69.26;99059.19;18365841;32;20101;-59
2022/11/23 02:28:03;;;;;;;3.80;3.45;;;;;;;7.58;68.58;99069.47;18365290;32;20151;-59
2022/11/23 02:38:06;;;;;;;1.02;0.98;;;;;;;7.71;68.33;99072.78;18364866;32;20097;-59
2022/11/23 02:48:11;;;;;;;0.70;0.70;;;;;;;7.36;69.50;99064.53;18364920;32;20154;-59
2022/11/23 02:58:15;;;;;;;1.60;1.52;;;;;;;7.61;68.66;99061.66;18363454;32;20161;-60
2022/11/23 03:08:19;;;;;;;0.60;0.60;;;;;;;7.55;68.74;99077.31;18363413;32;20093;-59
2022/11/23 03:18:22;;;;;;;1.05;1.05;;;;;;;7.25;69.58;99091.47;18363705;32;20480;-59
2022/11/23 03:28:27;;;;;;;3.28;1.30;;;;;;;7.49;68.94;99079.97;18363428;32;20105;-60
2022/11/23 03:38:30;;;;;;;0.70;0.70;;;;;;;7.72;68.23;99074.50;18362079;32;20461;-59
2022/11/23 03:48:35;;;;;;;0.73;0.73;;;;;;;7.69;68.38;99084.94;18361448;32;20096;-59
2022/11/23 03:58:39;;;;;;;0.50;0.50;;;;;;;7.65;68.66;99083.28;18360875;32;20147;-59
2022/11/23 04:08:44;;;;;;;0.65;0.65;;;;;;;7.28;69.51;99094.87;18360603;32;20784;-60
2022/11/23 04:18:47;;;;;;;1.75;1.25;;;;;;;7.64;68.96;99079.81;18368928;32;20444;-60
2022/11/23 04:28:51;;;;;;;0.73;0.73;;;;;;;7.64;68.80;99068.56;18368632;32;20105;-59
2022/11/23 04:38:55;;;;;;;1.62;1.08;;;;;;;7.59;68.89;99067.75;18410398;32;20112;-60
2022/11/23 04:48:59;;;;;;;0.60;0.60;;;;;;;7.68;68.61;99077.16;18431863;32;20449;-60
2022/11/23 04:59:02;;;;;;;0.70;0.70;;;;;;;7.70;68.78;99067.62;18431530;32;20085;-60
2022/11/23 05:09:07;;;;;;;0.80;0.80;;;;;;;7.74;68.62;99077.09;18431649;32;20112;-60
2022/11/23 05:19:10;;;;;;;1.67;1.58;;;;;;;7.63;68.97;99072.91;18399045;32;20474;-60
2022/11/23 05:29:14;;;;;;;0.65;0.65;;;;;;;7.35;69.82;99096.56;18397248;32;20089;-59
2022/11/23 05:39:18;;;;;;;0.70;0.70;;;;;;;7.73;68.80;99097.03;18405727;32;20109;-60
2022/11/23 05:49:23;;;;;;;1.37;1.27;;;;;;;7.71;69.07;99093.56;18423282;32;20105;-60
2022/11/23 05:59:26;;;;;;;0.60;0.60;;;;;;;7.68;69.11;99079.75;18431255;32;20092;-60
2022/11/23 06:09:30;;;;;;;0.60;0.60;;;;;;;7.56;69.27;99068.63;18369819;32;20149;-59
2022/11/23 06:19:34;;;;;;;0.70;0.70;;;;;;;7.25;69.87;99065.50;18367536;32;20454;-59
2022/11/23 06:29:39;;;;;;;0.70;0.70;;;;;;;7.22;70.62;99062.06;18365687;32;20094;-59
2022/11/23 06:39:42;;;;;;;1.02;1.02;;;;;;;7.36;70.32;99067.12;18391675;32;20097;-59
2022/11/23 06:49:46;;;;;;;0.75;0.75;;;;;;;7.37;70.19;99078.37;18429790;32;20139;-58
2022/11/23 06:59:49;;;;;;;0.60;0.60;;;;;;;7.56;69.49;99085.97;18417909;32;20398;-59
2022/11/23 07:09:54;;;;;;;2.08;1.98;;;;;;;7.26;70.44;99104.44;18402366;32;20116;-59
2022/11/23 07:19:59;;;;;;;0.75;0.75;;;;;;;7.20;71.06;99092.38;18374728;32;20511;-59
2022/11/23 07:30:05;;;;;;;0.80;0.80;;;;;;;7.32;70.57;99091.41;18427688;32;20360;-59
2022/11/23 07:40:09;;;;;;;1.95;1.67;;;;;;;7.04;72.57;99107.25;18377348;32;20697;-59
2022/11/23 07:50:14;;;;;;;0.80;0.80;;;;;;;6.68;74.17;99111.84;18401230;32;20101;-59
2022/11/23 08:00:19;;;;;;;0.43;0.43;;;;;;;7.28;71.83;99125.19;18398567;32;20229;-59
2022/11/23 08:10:23;;;;;;;0.60;0.60;;;;;;;7.73;70.46;99112.62;18411163;32;20097;-57
2022/11/23 08:20:28;;;;;;;0.70;0.70;;;;;;;7.68;70.67;99108.34;18398112;32;20093;-58
2022/11/23 08:30:33;;;;;;;0.65;0.65;;;;;;;7.49;70.86;99122.38;18398801;32;20100;-57
2022/11/23 08:40:37;;;;;;;0.60;0.60;;;;;;;7.75;70.48;99120.38;18370388;32;86887;-59
2022/11/23 08:50:43;;;;;;;0.60;0.60;;;;;;;7.82;70.62;99127.25;18385385;32;20128;-59
2022/11/23 09:00:46;;;;;;;0.70;0.70;;;;;;;8.14;69.68;99128.56;18403571;32;20565;-59
2022/11/23 09:10:51;;;;;;;0.62;0.62;;;;;;;8.13;70.00;99126.84;18397515;32;20183;-59
2022/11/23 09:20:54;;;;;;;0.50;0.50;;;;;;;8.10;70.00;99132.09;18370532;32;20446;-59
2022/11/23 09:30:58;;;;;;;0.60;0.60;;;;;;;8.24;69.20;99126.72;18369159;32;20151;-59
2022/11/23 09:41:20;;;;;;;1.05;1.05;;;;;;;8.21;69.16;99129.38;18402824;32;20104;-59
2022/11/23 09:51:25;;;;;;;0.60;0.60;;;;;;;8.31;69.04;99124.91;18410767;32;20365;-59
2022/11/23 10:01:29;;;;;;;0.60;0.60;;;;;;;8.07;69.77;99124.34;18408539;32;20381;-59
2022/11/23 10:12:03;;;;;;;0.68;0.68;;;;;;;8.07;69.73;99111.38;18388773;32;20101;-59
2022/11/23 10:22:11;;;;;;;0.88;0.88;;;;;;;8.17;70.07;99115.56;18365704;32;20774;-59
2022/11/23 10:32:26;;;;;;;0.93;0.80;;;;;;;8.36;69.30;99107.50;18352045;32;20167;-60
2022/11/23 10:42:33;;;;;;;1.20;1.10;;;;;;;8.58;69.03;99113.31;18383780;32;20188;-59
2022/11/23 10:52:38;;;;;;;0.68;0.68;;;;;;;8.82;68.17;99110.31;18424399;32;20182;-59
2022/11/23 11:02:44;;;;;;;0.70;0.70;;;;;;;8.46;68.56;99119.50;18428154;32;20441;-59
2022/11/23 11:12:51;;;;;;;0.40;0.40;;;;;;;8.67;67.70;99112.28;18402213;32;20429;-60
2022/11/23 11:22:55;;;;;;;0.60;0.60;;;;;;;8.24;68.74;99123.25;18426700;32;20104;-60
2022/11/23 11:33:05;;;;;;;0.50;0.50;;;;;;;8.52;68.66;99130.72;18423965;32;20119;-60
2022/11/23 11:43:13;;;;;;;0.93;0.93;;;;;;;8.65;68.63;99124.47;18381575;32;20153;-60
2022/11/23 11:53:20;;;;;;;0.70;0.70;;;;;;;8.80;67.89;99122.50;18424111;32;20566;-59
2022/11/23 12:03:32;;;;;;;0.60;0.60;;;;;;;8.85;67.60;99112.91;18424748;32;20085;-59
2022/11/23 12:13:39;;;;;;;0.60;0.60;;;;;;;8.60;68.36;99115.84;18423060;32;20151;-59
2022/11/23 12:23:53;;;;;;;0.60;0.60;;;;;;;8.77;67.79;99109.53;18423063;32;20089;-59
2022/11/23 12:34:12;;;;;;;0.70;0.70;;;;;;;8.69;68.05;99110.53;18413155;32;20143;-59
2022/11/23 12:44:44;;;;;;;0.60;0.60;;;;;;;8.64;67.98;99112.34;18432385;32;20086;-60
2022/11/23 12:54:56;;;;;;;0.70;0.70;;;;;;;8.97;67.36;99106.63;18432099;32;20124;-60
2022/11/23 13:05:32;;;;;;;0.95;0.95;;;;;;;9.05;67.14;99096.09;18406064;32;20098;-59
2022/11/23 13:15:56;;;;;;;0.60;0.60;;;;;;;8.99;67.01;99097.91;18382201;32;20173;-59
2022/11/23 13:26:16;;;;;;;0.60;0.60;;;;;;;8.98;66.88;99101.37;18409333;32;20497;-59
2022/11/23 13:36:43;;;;;;;0.70;0.70;;;;;;;9.06;66.78;99108.22;18429637;32;20089;-59
2022/11/23 13:47:18;;;;;;;0.70;0.70;;;;;;;9.07;66.16;99117.75;18396383;32;20101;-59
2022/11/23 13:57:23;;;;;;;0.60;0.60;;;;;;;9.10;66.14;99125.50;18411934;32;20113;-61
2022/11/23 14:07:30;;;;;;;0.60;0.60;;;;;;;9.31;65.44;99121.66;18382718;32;20128;-60
2022/11/23 14:18:00;;;;;;;0.60;0.60;;;;;;;9.29;65.43;99131.25;18420725;32;20115;-60
2022/11/23 14:28:11;;;;;;;0.68;0.68;;;;;;;9.33;65.02;99140.72;18400425;32;20093;-60
2022/11/23 14:38:45;;;;;;;0.60;0.60;;;;;;;9.29;65.36;99141.69;18380588;32;20382;-60
2022/11/23 14:48:49;;;;;;;0.55;0.55;;;;;;;9.25;65.39;99140.88;18365850;32;20111;-61
2022/11/23 14:58:55;;;;;;;0.60;0.60;;;;;;;9.30;65.09;99139.06;18363396;32;20094;-61
2022/11/23 15:09:05;;;;;;;0.70;0.70;;;;;;;9.14;65.08;99141.03;18412154;32;20105;-61
2022/11/23 15:19:20;;;;;;;0.60;0.60;;;;;;;8.79;65.94;99158.09;18420239;32;20105;-60
2022/11/23 15:29:33;;;;;;;0.40;0.40;;;;;;;9.15;65.10;99165.34;18380762;32;20081;-60
2022/11/23 15:39:39;;;;;;;0.57;0.57;;;;;;;8.84;65.87;99161.47;18407145;32;20093;-61
2022/11/23 15:49:42;;;;;;;0.80;0.80;;;;;;;8.93;65.05;99159.59;18388035;32;20097;-60
2022/11/23 15:59:48;;;;;;;1.20;1.17;;;;;;;9.39;64.31;99160.59;18390213;32;20097;-60
2022/11/23 16:10:12;;;;;;;0.70;0.70;;;;;;;9.51;64.19;99175.16;18395186;32;20384;-61
2022/11/23 16:20:16;;;;;;;0.52;0.52;;;;;;;9.53;64.30;99182.06;18409350;32;20227;-60
2022/11/23 16:30:23;;;;;;;9.55;2.53;;;;;;;9.49;65.01;99187.34;18418664;32;20521;-61
2022/11/23 16:40:27;;;;;;;4.68;1.52;;;;;;;9.52;65.32;99201.19;18435368;32;20110;-60
2022/11/23 16:50:32;;;;;;;0.50;0.50;;;;;;;9.34;66.40;99194.53;18434591;32;20097;-60
2022/11/23 17:00:37;;;;;;;0.60;0.60;;;;;;;9.36;66.71;99205.81;18431232;32;20098;-60
2022/11/23 17:10:40;;;;;;;0.73;0.73;;;;;;;9.37;66.79;99212.72;18434889;32;20097;-60
2022/11/23 17:20:45;;;;;;;1.85;1.70;;;;;;;9.36;67.18;99218.81;18434237;32;20152;-60
2022/11/23 17:30:49;;;;;;;0.50;0.50;;;;;;;9.38;67.33;99208.34;18419658;32;20109;-60
2022/11/23 17:40:54;;;;;;;0.80;0.80;;;;;;;9.41;67.32;99221.34;18418331;32;20097;-60
2022/11/23 17:50:57;;;;;;;1.25;1.15;;;;;;;9.33;67.65;99223.22;18419268;32;20104;-60
2022/11/23 18:01:01;;;;;;;2.37;1.67;;;;;;;9.37;67.17;99228.34;18418859;32;20159;-60
2022/11/23 18:11:05;;;;;;;0.88;0.88;;;;;;;9.29;67.53;99235.44;18433282;32;20354;-60
2022/11/23 18:21:13;;;;;;;0.70;0.70;;;;;;;9.25;68.03;99242.44;18417964;32;20116;-60
2022/11/23 18:31:16;;;;;;;0.85;0.85;;;;;;;9.16;68.46;99235.62;18412899;32;20093;-60
2022/11/23 18:41:21;;;;;;;1.17;1.17;;;;;;;9.26;68.40;99244.13;18432335;32;20173;-60
2022/11/23 18:51:24;;;;;;;0.60;0.60;;;;;;;9.19;68.51;99234.69;18417463;32;20098;-60
2022/11/23 19:01:29;;;;;;;1.87;1.73;;;;;;;9.18;68.45;99245.16;18417956;32;20104;-60
2022/11/23 19:11:33;;;;;;;1.65;1.35;;;;;;;9.18;68.78;99243.38;18417072;32;20162;-60
2022/11/23 19:21:37;;;;;;;1.33;1.33;;;;;;;9.24;68.50;99252.84;18416301;32;20111;-60
2022/11/23 19:31:41;;;;;;;0.70;0.70;;;;;;;9.22;68.55;99252.91;18411420;32;20138;-60
2022/11/23 19:41:47;;;;;;;1.50;1.45;;;;;;;9.17;68.65;99257.31;18416140;32;20183;-60
2022/11/23 19:51:52;;;;;;;1.02;1.02;;;;;;;9.17;68.83;99272.91;18429165;32;20104;-60
2022/11/23 20:01:57;;;;;;;5.10;2.37;;;;;;;9.14;68.83;99272.97;18410958;32;20137;-60
2022/11/23 20:12:01;;;;;;;1.62;1.52;;;;;;;9.16;68.80;99286.81;18419292;32;20101;-60
2022/11/23 20:22:05;;;;;;;0.93;0.90;;;;;;;9.20;68.80;99285.03;18416929;32;20190;-60
2022/11/23 20:32:10;;;;;;;0.70;0.70;;;;;;;9.14;69.17;99291.19;18415186;32;20096;-60
2022/11/23 20:42:15;;;;;;;1.33;1.23;;;;;;;9.11;69.06;99284.28;18420557;32;20092;-60
2022/11/23 20:52:23;;;;;;;0.85;0.85;;;;;;;9.06;69.09;99296.53;18433735;32;20099;-60
2022/11/23 21:02:27;;;;;;;1.37;1.25;;;;;;;9.16;68.90;99312.88;18431112;32;20124;-60
2022/11/23 21:22:54;;;;;;;3.58;2.22;;;;;;;9.06;69.47;99326.88;18427506;32;20392;-60
2022/11/23 21:32:57;;;;;;;1.05;1.05;;;;;;;9.13;69.27;99329.38;18415725;32;20138;-60
2022/11/23 21:43:02;;;;;;;0.98;0.93;;;;;;;9.15;69.28;99337.19;18413944;32;20151;-60
2022/11/23 21:53:05;;;;;;;1.10;1.10;;;;;;;9.31;68.84;99350.84;18426524;32;20089;-60
2022/11/23 22:03:10;;;;;;;1.20;1.15;;;;;;;9.24;69.10;99360.50;18428834;32;20172;-60
2022/11/23 22:13:13;;;;;;;0.60;0.60;;;;;;;9.24;69.13;99360.50;18433476;32;20080;-60
2022/11/23 22:23:18;;;;;;;1.40;1.30;;;;;;;9.28;68.87;99354.34;18432687;32;20432;-60
2022/11/23 22:33:21;;;;;;;0.60;0.60;;;;;;;9.21;69.03;99367.47;18432897;32;20369;-60
2022/11/23 22:43:25;;;;;;;0.65;0.65;;;;;;;9.24;69.03;99372.62;18432699;32;20353;-60
2022/11/23 22:53:29;;;;;;;0.80;0.80;;;;;;;9.30;68.83;99370.84;18432840;32;20650;-60
2022/11/23 23:03:33;;;;;;;0.70;0.70;;;;;;;9.14;69.29;99377.13;18431770;32;20097;-60
2022/11/23 23:13:37;;;;;;;0.80;0.80;;;;;;;9.17;69.10;99379.69;18430207;32;20127;-60
2022/11/23 23:23:43;;;;;;;1.55;0.90;;;;;;;9.15;69.23;99389.25;18430627;32;20372;-59
2022/11/23 23:33:47;;;;;;;0.60;0.60;;;;;;;9.25;69.07;99390.84;18429832;32;20136;-60
2022/11/23 23:43:51;;;;;;;0.60;0.60;;;;;;;9.21;69.11;99397.00;18429454;32;20112;-60
2022/11/23 23:53:54;;;;;;;0.68;0.68;;;;;;;9.26;69.00;99412.56;18428789;32;20382;-60
